Time;durP1;ratioP1;P1;durP2;ratioP2;P2;SDS_P1;SDS_P2;PMS_P1;PMS_P2;Temp;Humidity;BMP_temperature;BMP_pressure;BME280_temperature;BME280_humidity;BME280_pressure;Samples;Min_cycle;Max_cycle;Signal;HPM_P1;HPM_P2
2024/01/01 00:00:33;;;;;;;;;;;;;;;;;;5103873;27;19972;-81
2024/01/01 00:03:00;;;;;;;;;;;;;;;;;;5099569;27;20334;-80
2024/01/01 00:05:26;;;;;;;;;;;;;;;;;;5103602;27;20019;-81
2024/01/01 00:07:53;;;;;;;;;;;;;;;;;;5096896;28;19924;-82
2024/01/01 00:10:19;;;;;;;;;;;;;;;;;;5102929;27;20291;-79
2024/01/01 00:12:46;;;;;;;;;;;;;;;;;;5119285;27;20074;-80
2024/01/01 00:15:12;;;;;;;;;;;;;;;;;;5085225;27;20380;-80
2024/01/01 00:17:38;;;;;;;;;;;;;;;;;;5103519;28;20034;-81
2024/01/01 00:20:05;;;;;;;;;;;;;;;;;;5119521;27;19936;-79
2024/01/01 00:22:31;;;;;;;;;;;;;;;;;;5086200;28;20276;-80
2024/01/01 00:24:58;;;;;;;;;;;;;;;;;;5103974;27;19978;-80
2024/01/01 00:27:24;;;;;;;;;;;;;;;;;;5118526;27;19935;-81
2024/01/01 00:29:51;;;;;;;;;;;;;;;;;;5096991;28;19934;-79
2024/01/01 00:32:17;;;;;;;;;;;;;;;;;;5118197;27;20276;-81
2024/01/01 00:34:45;;;;;;;;;;;;;;;;;;5118181;27;19923;-82
2024/01/01 00:37:12;;;;;;;;;;;;;;;;;;5082492;28;20400;-79
2024/01/01 00:39:38;;;;;;;;;;;;;;;;;;5082536;28;19934;-80
2024/01/01 00:42:04;;;;;;;;;;;;;;;;;;5120203;27;20318;-81
2024/01/01 00:44:31;;;;;;;;;;;;;;;;;;5097342;27;19930;-80
2024/01/01 00:46:58;;;;;;;;;;;;;;;;;;5080526;28;19932;-80
2024/01/01 00:49:25;;;;;;;;;;;;;;;;;;5078781;28;19928;-81
2024/01/01 00:51:51;;;;;;;;;;;;;;;;;;5115580;27;19924;-80
2024/01/01 00:54:17;;;;;;;;;;;;;;;;;;5101549;28;19948;-81
2024/01/01 00:56:44;;;;;;;;;;;;;;;;;;5097758;28;19932;-81
2024/01/01 00:59:10;;;;;;;;;;;;;;;;;;5099615;28;19945;-81
2024/01/01 01:01:37;;;;;;;;;;;;;;;;;;5099205;28;19983;-80
2024/01/01 01:04:04;;;;;;;;;;;;;;;;;;5119636;27;19927;-78
2024/01/01 01:06:30;;;;;;;;;;;;;;;;;;5118916;27;19971;-81
2024/01/01 01:08:57;;;;;;;;;;;;;;;;;;5122482;28;20041;-80
2024/01/01 01:11:23;;;;;;;;;;;;;;;;;;5100460;28;19954;-80
2024/01/01 01:13:50;;;;;;;;;;;;;;;;;;5115876;28;20035;-82
2024/01/01 01:16:17;;;;;;;;;;;;;;;;;;5094364;28;20389;-82
2024/01/01 01:18:44;;;;;;;;;;;;;;;;;;5081436;28;19924;-82
2024/01/01 01:21:13;;;;;;;;;;;;;;;;;;5096849;28;19923;-80
2024/01/01 01:23:39;;;;;;;;;;;;;;;;;;5098789;28;19928;-81
2024/01/01 01:26:06;;;;;;;;;;;;;;;;;;5095272;28;20026;-81
2024/01/01 01:28:32;;;;;;;;;;;;;;;;;;5097302;28;20031;-83
2024/01/01 01:30:58;;;;;;;;;;;;;;;;;;5081887;28;20022;-80
2024/01/01 01:33:25;;;;;;;;;;;;;;;;;;5107059;28;19973;-79
2024/01/01 01:35:52;;;;;;;;;;;;;;;;;;5088687;28;19934;-78
2024/01/01 01:38:18;;;;;;;;;;;;;;;;;;5096311;28;19965;-80
2024/01/01 01:40:44;;;;;;;;;;;;;;;;;;5091349;28;19923;-81
2024/01/01 01:43:11;;;;;;;;;;;;;;;;;;5105490;28;20296;-81
2024/01/01 01:45:37;;;;;;;;;;;;;;;;;;5094642;28;20513;-79
2024/01/01 01:48:04;;;;;;;;;;;;;;;;;;5102371;28;20023;-83
2024/01/01 01:50:30;;;;;;;;;;;;;;;;;;5099010;28;19924;-79
2024/01/01 01:52:57;;;;;;;;;;;;;;;;;;5105313;28;19962;-80
2024/01/01 01:55:23;;;;;;;;;;;;;;;;;;5098137;28;19931;-80
2024/01/01 01:57:50;;;;;;;;;;;;;;;;;;5098643;28;20005;-81
2024/01/01 02:00:16;;;;;;;;;;;;;;;;;;5100409;28;20403;-80
2024/01/01 02:02:43;;;;;;;;;;;;;;;;;;5116109;28;19968;-78
2024/01/01 02:05:09;;;;;;;;;;;;;;;;;;5123290;28;19958;-80
2024/01/01 02:07:37;;;;;;;;;;;;;;;;;;5096310;28;19932;-79
2024/01/01 02:10:04;;;;;;;;;;;;;;;;;;5101760;27;19945;-80
2024/01/01 02:12:31;;;;;;;;;;;;;;;;;;5098322;28;19924;-80
2024/01/01 02:14:58;;;;;;;;;;;;;;;;;;5103805;27;20034;-81
2024/01/01 02:17:24;;;;;;;;;;;;;;;;;;5121251;27;19977;-82
2024/01/01 02:19:51;;;;;;;;;;;;;;;;;;5087109;27;19923;-81
2024/01/01 02:22:21;;;;;;;;;;;;;;;;;;5086646;27;19924;-80
2024/01/01 02:24:48;;;;;;;;;;;;;;;;;;5089841;27;20380;-77
2024/01/01 02:27:14;;;;;;;;;;;;;;;;;;5107849;27;20319;-79
2024/01/01 02:29:41;;;;;;;;;;;;;;;;;;5117841;27;20737;-81
2024/01/01 02:32:07;;;;;;;;;;;;;;;;;;5124792;27;20615;-81
2024/01/01 02:34:34;;;;;;;;;;;;;;;;;;5104195;27;19934;-80
2024/01/01 02:37:00;;;;;;;;;;;;;;;;;;5103298;27;19924;-81
2024/01/01 02:39:27;;;;;;;;;;;;;;;;;;5085104;27;19923;-81
2024/01/01 02:41:53;;;;;;;;;;;;;;;;;;5119478;27;19928;-79
2024/01/01 02:44:19;;;;;;;;;;;;;;;;;;5121946;27;20364;-81
2024/01/01 02:46:46;;;;;;;;;;;;;;;;;;5121930;27;19968;-80
2024/01/01 02:49:13;;;;;;;;;;;;;;;;;;5096203;28;20461;-80
2024/01/01 02:51:40;;;;;;;;;;;;;;;;;;5097929;27;19928;-78
2024/01/01 02:54:06;;;;;;;;;;;;;;;;;;5102179;27;19973;-80
2024/01/01 02:56:33;;;;;;;;;;;;;;;;;;5099866;27;19923;-79
2024/01/01 02:58:59;;;;;;;;;;;;;;;;;;5099492;28;20516;-79
2024/01/01 03:01:26;;;;;;;;;;;;;;;;;;5117156;27;19930;-80
2024/01/01 03:03:52;;;;;;;;;;;;;;;;;;5100235;27;19927;-81
2024/01/01 03:06:18;;;;;;;;;;;;;;;;;;5083871;27;19931;-80
2024/01/01 03:08:46;;;;;;;;;;;;;;;;;;5100291;27;19927;-82
2024/01/01 03:11:12;;;;;;;;;;;;;;;;;;5097965;28;20017;-81
2024/01/01 03:13:39;;;;;;;;;;;;;;;;;;5117343;27;19931;-82
2024/01/01 03:16:05;;;;;;;;;;;;;;;;;;5100034;28;20410;-83
2024/01/01 03:18:32;;;;;;;;;;;;;;;;;;5087107;27;19952;-83
2024/01/01 03:20:58;;;;;;;;;;;;;;;;;;5115954;27;19934;-79
2024/01/01 03:23:25;;;;;;;;;;;;;;;;;;5098748;27;20368;-84
2024/01/01 03:25:51;;;;;;;;;;;;;;;;;;5102799;27;19955;-84
2024/01/01 03:28:18;;;;;;;;;;;;;;;;;;5087511;28;19928;-82
2024/01/01 03:30:44;;;;;;;;;;;;;;;;;;5098379;28;19928;-84
2024/01/01 03:33:11;;;;;;;;;;;;;;;;;;5120004;27;20384;-84
2024/01/01 03:35:37;;;;;;;;;;;;;;;;;;5102833;27;20006;-85
2024/01/01 03:38:04;;;;;;;;;;;;;;;;;;5118609;27;19966;-85
2024/01/01 03:40:30;;;;;;;;;;;;;;;;;;5118310;27;19924;-85
2024/01/01 03:42:57;;;;;;;;;;;;;;;;;;5104430;27;19927;-86
2024/01/01 03:45:23;;;;;;;;;;;;;;;;;;5094501;28;19931;-86
2024/01/01 03:47:50;;;;;;;;;;;;;;;;;;5119343;27;20586;-85
2024/01/01 03:50:16;;;;;;;;;;;;;;;;;;5102848;27;19924;-86
2024/01/01 03:52:43;;;;;;;;;;;;;;;;;;5099373;28;19988;-82
2024/01/01 03:55:09;;;;;;;;;;;;;;;;;;5119990;27;19969;-85
2024/01/01 03:57:36;;;;;;;;;;;;;;;;;;5119459;27;20014;-86
2024/01/01 04:00:03;;;;;;;;;;;;;;;;;;5084780;27;19924;-85
2024/01/01 04:02:33;;;;;;;;;;;;;;;;;;5097583;27;19928;-85
2024/01/01 04:04:59;;;;;;;;;;;;;;;;;;5103796;27;19923;-84
2024/01/01 04:07:26;;;;;;;;;;;;;;;;;;5119718;27;19924;-85
2024/01/01 04:09:52;;;;;;;;;;;;;;;;;;5102707;28;19950;-85
2024/01/01 04:12:19;;;;;;;;;;;;;;;;;;5118773;27;19938;-86
2024/01/01 04:14:45;;;;;;;;;;;;;;;;;;5104091;27;19976;-85
2024/01/01 04:17:12;;;;;;;;;;;;;;;;;;5120137;27;19939;-85
2024/01/01 04:19:38;;;;;;;;;;;;;;;;;;5116328;27;20440;-85
2024/01/01 04:22:05;;;;;;;;;;;;;;;;;;5121140;27;19934;-84
2024/01/01 04:24:31;;;;;;;;;;;;;;;;;;5119958;27;19928;-85
2024/01/01 04:26:58;;;;;;;;;;;;;;;;;;5117244;27;20330;-86
2024/01/01 04:29:24;;;;;;;;;;;;;;;;;;5117511;27;19928;-86
2024/01/01 04:31:50;;;;;;;;;;;;;;;;;;5114162;27;19923;-86
2024/01/01 04:34:17;;;;;;;;;;;;;;;;;;5114503;28;19946;-85
2024/01/01 04:36:44;;;;;;;;;;;;;;;;;;5101739;28;19991;-87
2024/01/01 04:39:10;;;;;;;;;;;;;;;;;;5097996;27;19923;-86
2024/01/01 04:41:36;;;;;;;;;;;;;;;;;;5080269;28;19924;-87
2024/01/01 04:44:03;;;;;;;;;;;;;;;;;;5097222;28;19927;-86
2024/01/01 04:46:29;;;;;;;;;;;;;;;;;;5119431;27;20461;-85
2024/01/01 04:48:56;;;;;;;;;;;;;;;;;;5116258;27;19945;-85
2024/01/01 04:51:22;;;;;;;;;;;;;;;;;;5085153;28;20288;-87
2024/01/01 04:53:49;;;;;;;;;;;;;;;;;;5099293;28;19967;-82
2024/01/01 04:56:16;;;;;;;;;;;;;;;;;;5111993;27;20454;-84
2024/01/01 04:58:43;;;;;;;;;;;;;;;;;;5110402;27;19924;-85
2024/01/01 05:01:09;;;;;;;;;;;;;;;;;;5103500;27;19924;-85
2024/01/01 05:03:36;;;;;;;;;;;;;;;;;;5120160;27;19927;-84
2024/01/01 05:06:02;;;;;;;;;;;;;;;;;;5108045;28;19924;-86
2024/01/01 05:08:29;;;;;;;;;;;;;;;;;;5096487;28;19928;-85
2024/01/01 05:10:55;;;;;;;;;;;;;;;;;;5100089;28;20381;-85
2024/01/01 05:13:23;;;;;;;;;;;;;;;;;;5119666;28;19948;-86
2024/01/01 05:15:49;;;;;;;;;;;;;;;;;;5118630;28;20402;-84
2024/01/01 05:18:15;;;;;;;;;;;;;;;;;;5095962;28;19924;-85
2024/01/01 05:20:42;;;;;;;;;;;;;;;;;;5096616;28;19928;-83
2024/01/01 05:23:08;;;;;;;;;;;;;;;;;;5102617;28;20022;-85
2024/01/01 05:25:35;;;;;;;;;;;;;;;;;;5102214;28;19923;-84
2024/01/01 05:28:02;;;;;;;;;;;;;;;;;;5117777;28;19924;-86
2024/01/01 05:30:31;;;;;;;;;;;;;;;;;;5101075;28;19928;-87
2024/01/01 05:32:57;;;;;;;;;;;;;;;;;;5114437;28;19924;-83
2024/01/01 05:35:24;;;;;;;;;;;;;;;;;;5115286;28;20014;-86
2024/01/01 05:37:50;;;;;;;;;;;;;;;;;;5082761;28;19963;-84
2024/01/01 05:40:16;;;;;;;;;;;;;;;;;;5122595;28;19923;-83
2024/01/01 05:42:43;;;;;;;;;;;;;;;;;;5100745;27;20030;-84
2024/01/01 05:45:09;;;;;;;;;;;;;;;;;;5108319;27;19959;-85
2024/01/01 05:47:36;;;;;;;;;;;;;;;;;;5109321;28;19979;-84
2024/01/01 05:50:02;;;;;;;;;;;;;;;;;;5123717;27;19924;-83
2024/01/01 05:52:29;;;;;;;;;;;;;;;;;;5106536;27;19985;-83
2024/01/01 05:54:55;;;;;;;;;;;;;;;;;;5103119;28;20041;-83
2024/01/01 05:57:22;;;;;;;;;;;;;;;;;;5103483;27;20022;-85
2024/01/01 05:59:48;;;;;;;;;;;;;;;;;;5121920;27;20026;-84
2024/01/01 06:02:15;;;;;;;;;;;;;;;;;;5120032;27;20006;-83
2024/01/01 06:04:41;;;;;;;;;;;;;;;;;;5097985;28;20316;-81
2024/01/01 06:07:08;;;;;;;;;;;;;;;;;;5125168;27;19923;-86
2024/01/01 06:09:34;;;;;;;;;;;;;;;;;;5102470;27;19923;-83
2024/01/01 06:12:01;;;;;;;;;;;;;;;;;;5103300;28;20031;-85
2024/01/01 06:14:28;;;;;;;;;;;;;;;;;;5099827;28;19928;-82
2024/01/01 06:16:54;;;;;;;;;;;;;;;;;;5104659;28;20549;-85
2024/01/01 06:19:20;;;;;;;;;;;;;;;;;;5123390;27;19932;-82
2024/01/01 06:21:47;;;;;;;;;;;;;;;;;;5106294;27;19928;-85
2024/01/01 06:24:14;;;;;;;;;;;;;;;;;;5102315;27;20376;-82
2024/01/01 06:26:40;;;;;;;;;;;;;;;;;;5102204;27;19927;-84
2024/01/01 06:29:07;;;;;;;;;;;;;;;;;;5104163;28;19927;-84
2024/01/01 06:31:33;;;;;;;;;;;;;;;;;;5101504;27;19927;-86
2024/01/01 06:34:01;;;;;;;;;;;;;;;;;;5100235;28;20044;-84
2024/01/01 06:36:28;;;;;;;;;;;;;;;;;;5118135;27;20332;-86
2024/01/01 06:38:55;;;;;;;;;;;;;;;;;;5122524;27;20311;-85
2024/01/01 06:41:21;;;;;;;;;;;;;;;;;;5119420;27;19930;-84
2024/01/01 06:43:48;;;;;;;;;;;;;;;;;;5101302;27;19935;-84
2024/01/01 06:46:14;;;;;;;;;;;;;;;;;;5120313;27;19923;-83
2024/01/01 06:48:40;;;;;;;;;;;;;;;;;;5124702;27;19927;-80
2024/01/01 06:51:07;;;;;;;;;;;;;;;;;;5122778;27;19954;-83
2024/01/01 06:53:33;;;;;;;;;;;;;;;;;;5098934;28;20377;-83
2024/01/01 06:56:00;;;;;;;;;;;;;;;;;;5101893;27;19928;-84
2024/01/01 06:58:26;;;;;;;;;;;;;;;;;;5117701;27;19928;-84
2024/01/01 07:00:52;;;;;;;;;;;;;;;;;;5101763;27;19923;-85
2024/01/01 07:03:19;;;;;;;;;;;;;;;;;;5116822;27;20012;-83
2024/01/01 07:05:48;;;;;;;;;;;;;;;;;;5099384;27;20396;-84
2024/01/01 07:08:15;;;;;;;;;;;;;;;;;;5096541;28;19967;-84
2024/01/01 07:10:41;;;;;;;;;;;;;;;;;;5101493;28;19932;-84
2024/01/01 07:13:08;;;;;;;;;;;;;;;;;;5120741;27;19924;-84
2024/01/01 07:15:34;;;;;;;;;;;;;;;;;;5119136;27;19946;-84
2024/01/01 07:18:01;;;;;;;;;;;;;;;;;;5109264;27;19923;-83
2024/01/01 07:20:28;;;;;;;;;;;;;;;;;;5086752;28;19962;-83
2024/01/01 07:22:55;;;;;;;;;;;;;;;;;;5104182;27;20299;-83
2024/01/01 07:25:22;;;;;;;;;;;;;;;;;;5097354;28;20018;-84
2024/01/01 07:27:48;;;;;;;;;;;;;;;;;;5103327;27;19955;-83
2024/01/01 07:30:14;;;;;;;;;;;;;;;;;;5122958;27;19954;-85
2024/01/01 07:32:41;;;;;;;;;;;;;;;;;;5102780;27;19976;-83
2024/01/01 07:35:08;;;;;;;;;;;;;;;;;;5097981;28;19923;-85
2024/01/01 07:37:35;;;;;;;;;;;;;;;;;;5119030;27;19931;-83
2024/01/01 07:40:01;;;;;;;;;;;;;;;;;;5103151;27;19931;-84
2024/01/01 07:42:28;;;;;;;;;;;;;;;;;;5102147;27;20391;-84
2024/01/01 07:44:54;;;;;;;;;;;;;;;;;;5106799;27;19923;-83
2024/01/01 07:47:21;;;;;;;;;;;;;;;;;;5117322;27;19924;-84
2024/01/01 07:49:47;;;;;;;;;;;;;;;;;;5105461;28;20014;-84
2024/01/01 07:52:14;;;;;;;;;;;;;;;;;;5119506;27;19962;-84
2024/01/01 07:54:40;;;;;;;;;;;;;;;;;;5100193;28;19942;-86
2024/01/01 07:57:07;;;;;;;;;;;;;;;;;;5094834;28;19934;-83
2024/01/01 07:59:33;;;;;;;;;;;;;;;;;;5103658;27;19924;-84
2024/01/01 08:02:00;;;;;;;;;;;;;;;;;;5122874;27;19932;-82
2024/01/01 08:04:26;;;;;;;;;;;;;;;;;;5104111;27;20380;-83
2024/01/01 08:06:53;;;;;;;;;;;;;;;;;;5098667;27;20019;-83
2024/01/01 08:09:19;;;;;;;;;;;;;;;;;;5118486;27;20307;-82
2024/01/01 08:11:45;;;;;;;;;;;;;;;;;;5102080;27;19928;-84
2024/01/01 08:14:12;;;;;;;;;;;;;;;;;;5099353;28;20018;-82
2024/01/01 08:16:38;;;;;;;;;;;;;;;;;;5103216;27;20025;-83
2024/01/01 08:19:06;;;;;;;;;;;;;;;;;;5116221;27;19970;-81
2024/01/01 08:21:33;;;;;;;;;;;;;;;;;;5100488;27;20391;-82
2024/01/01 08:23:59;;;;;;;;;;;;;;;;;;5115258;27;20064;-82
2024/01/01 08:26:26;;;;;;;;;;;;;;;;;;5120643;27;19969;-81
2024/01/01 08:28:52;;;;;;;;;;;;;;;;;;5115703;27;19924;-85
2024/01/01 08:31:22;;;;;;;;;;;;;;;;;;5104873;28;19924;-81
2024/01/01 08:33:49;;;;;;;;;;;;;;;;;;5120617;27;20388;-84
2024/01/01 08:36:15;;;;;;;;;;;;;;;;;;5102092;27;20042;-83
2024/01/01 08:38:42;;;;;;;;;;;;;;;;;;5095590;28;20354;-81
2024/01/01 08:41:09;;;;;;;;;;;;;;;;;;5113968;28;19924;-83
2024/01/01 08:43:35;;;;;;;;;;;;;;;;;;5116305;27;20030;-83
2024/01/01 08:46:02;;;;;;;;;;;;;;;;;;5102623;28;19924;-83
2024/01/01 08:48:28;;;;;;;;;;;;;;;;;;5114404;27;19969;-82
2024/01/01 08:50:55;;;;;;;;;;;;;;;;;;5094987;28;19950;-83
2024/01/01 08:53:21;;;;;;;;;;;;;;;;;;5102804;27;19928;-82
2024/01/01 08:55:48;;;;;;;;;;;;;;;;;;5119098;27;19973;-83
2024/01/01 08:58:14;;;;;;;;;;;;;;;;;;5101466;28;19924;-82
2024/01/01 09:00:40;;;;;;;;;;;;;;;;;;5102788;27;19924;-84
2024/01/01 09:03:07;;;;;;;;;;;;;;;;;;5097268;28;20269;-84
2024/01/01 09:05:34;;;;;;;;;;;;;;;;;;5098948;27;19927;-84
2024/01/01 09:08:00;;;;;;;;;;;;;;;;;;5101913;28;19975;-81
2024/01/01 09:10:27;;;;;;;;;;;;;;;;;;5096410;28;19967;-84
2024/01/01 09:12:53;;;;;;;;;;;;;;;;;;5104319;28;19935;-83
2024/01/01 09:15:20;;;;;;;;;;;;;;;;;;5099093;28;20387;-81
2024/01/01 09:17:46;;;;;;;;;;;;;;;;;;5121550;27;20014;-84
2024/01/01 09:20:13;;;;;;;;;;;;;;;;;;5126074;27;19927;-82
2024/01/01 09:22:39;;;;;;;;;;;;;;;;;;5120040;27;20014;-83
2024/01/01 09:25:06;;;;;;;;;;;;;;;;;;5123679;27;19931;-83
2024/01/01 09:27:32;;;;;;;;;;;;;;;;;;5120517;27;20340;-83
2024/01/01 09:29:59;;;;;;;;;;;;;;;;;;5101489;27;19931;-83
2024/01/01 09:32:26;;;;;;;;;;;;;;;;;;5106247;28;19934;-84
2024/01/01 09:34:55;;;;;;;;;;;;;;;;;;5121147;27;19935;-84
2024/01/01 09:37:22;;;;;;;;;;;;;;;;;;5102467;28;20341;-83
2024/01/01 09:39:48;;;;;;;;;;;;;;;;;;5102692;27;19930;-82
2024/01/01 09:42:15;;;;;;;;;;;;;;;;;;5100829;28;19930;-85
2024/01/01 09:44:41;;;;;;;;;;;;;;;;;;5119015;27;19931;-84
2024/01/01 09:47:08;;;;;;;;;;;;;;;;;;5122502;27;19923;-81
2024/01/01 09:49:34;;;;;;;;;;;;;;;;;;5118509;27;20006;-84
2024/01/01 09:52:01;;;;;;;;;;;;;;;;;;5094711;28;19923;-85
2024/01/01 09:54:28;;;;;;;;;;;;;;;;;;5107489;27;19942;-83
2024/01/01 09:56:55;;;;;;;;;;;;;;;;;;5105282;27;20032;-83
2024/01/01 09:59:21;;;;;;;;;;;;;;;;;;5120286;27;20376;-82
2024/01/01 10:01:48;;;;;;;;;;;;;;;;;;5083106;28;19928;-80
2024/01/01 10:04:14;;;;;;;;;;;;;;;;;;5118376;27;19930;-83
2024/01/01 10:06:43;;;;;;;;;;;;;;;;;;5086956;28;19924;-83
2024/01/01 10:09:10;;;;;;;;;;;;;;;;;;5121520;27;19939;-85
2024/01/01 10:11:40;;;;;;;;;;;;;;;;;;5116773;28;19942;-83
2024/01/01 10:14:12;;;;;;;;;;;;;;;;;;5102632;27;20047;-81
2024/01/01 10:16:39;;;;;;;;;;;;;;;;;;5118456;27;19927;-84
2024/01/01 10:19:06;;;;;;;;;;;;;;;;;;5103470;27;19969;-80
2024/01/01 10:21:34;;;;;;;;;;;;;;;;;;5082176;28;19924;-82
2024/01/01 10:24:00;;;;;;;;;;;;;;;;;;5101172;27;20454;-84
2024/01/01 10:26:30;;;;;;;;;;;;;;;;;;5099401;27;20384;-83
2024/01/01 10:28:56;;;;;;;;;;;;;;;;;;5087369;28;19956;-81
2024/01/01 10:31:22;;;;;;;;;;;;;;;;;;5100233;28;19924;-81
2024/01/01 10:33:49;;;;;;;;;;;;;;;;;;5103178;27;20621;-83
2024/01/01 10:36:17;;;;;;;;;;;;;;;;;;5098701;28;19982;-84
2024/01/01 10:38:45;;;;;;;;;;;;;;;;;;5120558;27;19946;-84
2024/01/01 10:41:11;;;;;;;;;;;;;;;;;;5108699;27;19927;-81
2024/01/01 10:43:38;;;;;;;;;;;;;;;;;;5106466;27;20017;-81
2024/01/01 10:46:04;;;;;;;;;;;;;;;;;;5083430;27;19973;-81
2024/01/01 10:48:31;;;;;;;;;;;;;;;;;;5117149;27;19967;-81
2024/01/01 10:50:57;;;;;;;;;;;;;;;;;;5097926;27;20014;-81
2024/01/01 10:53:23;;;;;;;;;;;;;;;;;;5094943;27;19970;-81
2024/01/01 10:55:51;;;;;;;;;;;;;;;;;;5098148;27;19931;-83
2024/01/01 10:58:18;;;;;;;;;;;;;;;;;;5100465;27;20014;-80
2024/01/01 11:00:44;;;;;;;;;;;;;;;;;;5099806;27;19935;-81
2024/01/01 11:03:11;;;;;;;;;;;;;;;;;;5122127;27;20018;-82
2024/01/01 11:05:37;;;;;;;;;;;;;;;;;;5102066;27;20010;-82
2024/01/01 11:08:04;;;;;;;;;;;;;;;;;;5104217;27;20343;-83
2024/01/01 11:10:30;;;;;;;;;;;;;;;;;;5101173;28;19955;-82
2024/01/01 11:12:57;;;;;;;;;;;;;;;;;;5084104;28;19958;-83
2024/01/01 11:15:23;;;;;;;;;;;;;;;;;;5097054;28;20324;-80
2024/01/01 11:17:50;;;;;;;;;;;;;;;;;;5090539;27;19962;-81
2024/01/01 11:20:16;;;;;;;;;;;;;;;;;;5098964;27;19924;-82
2024/01/01 11:22:43;;;;;;;;;;;;;;;;;;5120076;27;19947;-83
2024/01/01 11:25:09;;;;;;;;;;;;;;;;;;5103566;27;20379;-81
2024/01/01 11:27:38;;;;;;;;;;;;;;;;;;5102597;27;20375;-82
2024/01/01 11:30:05;;;;;;;;;;;;;;;;;;5116519;27;19969;-81
2024/01/01 11:32:31;;;;;;;;;;;;;;;;;;5119999;27;19963;-81
2024/01/01 11:34:58;;;;;;;;;;;;;;;;;;5118360;27;20014;-83
2024/01/01 11:37:24;;;;;;;;;;;;;;;;;;5085099;27;19963;-82
2024/01/01 11:39:51;;;;;;;;;;;;;;;;;;5119184;27;19949;-82
2024/01/01 11:42:17;;;;;;;;;;;;;;;;;;5118175;27;19927;-80
2024/01/01 11:44:43;;;;;;;;;;;;;;;;;;5105129;27;19955;-83
2024/01/01 11:47:10;;;;;;;;;;;;;;;;;;5099095;28;19974;-83
2024/01/01 11:49:36;;;;;;;;;;;;;;;;;;5098483;28;20400;-82
2024/01/01 11:52:04;;;;;;;;;;;;;;;;;;5096861;28;19953;-84
2024/01/01 11:54:31;;;;;;;;;;;;;;;;;;5118423;27;19932;-82
2024/01/01 11:56:57;;;;;;;;;;;;;;;;;;5119624;27;19951;-82
2024/01/01 11:59:24;;;;;;;;;;;;;;;;;;5083797;28;20363;-81
2024/01/01 12:01:51;;;;;;;;;;;;;;;;;;5097844;27;20396;-82
2024/01/01 12:04:17;;;;;;;;;;;;;;;;;;5085548;27;20022;-82
2024/01/01 12:06:43;;;;;;;;;;;;;;;;;;5122299;27;20433;-81
2024/01/01 12:09:10;;;;;;;;;;;;;;;;;;5119039;27;19924;-84
2024/01/01 12:11:37;;;;;;;;;;;;;;;;;;5118212;27;19931;-83
2024/01/01 12:14:04;;;;;;;;;;;;;;;;;;5118746;27;19927;-81
2024/01/01 12:16:31;;;;;;;;;;;;;;;;;;5099511;27;20034;-83
2024/01/01 12:18:57;;;;;;;;;;;;;;;;;;5123958;27;20291;-81
2024/01/01 12:21:24;;;;;;;;;;;;;;;;;;5094431;28;19932;-82
2024/01/01 12:23:50;;;;;;;;;;;;;;;;;;5118743;27;19928;-83
2024/01/01 12:26:17;;;;;;;;;;;;;;;;;;5097169;28;20292;-82
2024/01/01 12:28:43;;;;;;;;;;;;;;;;;;5103169;27;19924;-83
2024/01/01 12:31:09;;;;;;;;;;;;;;;;;;5086408;28;20280;-82
2024/01/01 12:33:36;;;;;;;;;;;;;;;;;;5080617;28;19928;-82
2024/01/01 12:36:02;;;;;;;;;;;;;;;;;;5080757;27;19972;-82
2024/01/01 12:38:29;;;;;;;;;;;;;;;;;;5122236;27;20343;-81
2024/01/01 12:40:56;;;;;;;;;;;;;;;;;;5103740;27;20413;-83
2024/01/01 12:43:22;;;;;;;;;;;;;;;;;;5096448;28;19924;-79
2024/01/01 12:45:48;;;;;;;;;;;;;;;;;;5098742;28;20234;-82
2024/01/01 12:48:15;;;;;;;;;;;;;;;;;;5102589;27;19973;-83
2024/01/01 12:50:41;;;;;;;;;;;;;;;;;;5115883;27;19932;-82
2024/01/01 12:53:08;;;;;;;;;;;;;;;;;;5100854;27;19927;-82
2024/01/01 12:55:35;;;;;;;;;;;;;;;;;;5099479;28;19947;-81
2024/01/01 12:58:01;;;;;;;;;;;;;;;;;;5082729;27;20307;-82
2024/01/01 13:00:28;;;;;;;;;;;;;;;;;;5098579;27;19927;-81
2024/01/01 13:02:55;;;;;;;;;;;;;;;;;;5086510;28;19931;-83
2024/01/01 13:05:21;;;;;;;;;;;;;;;;;;5081515;28;19950;-82
2024/01/01 13:07:48;;;;;;;;;;;;;;;;;;5101562;27;19928;-81
2024/01/01 13:10:14;;;;;;;;;;;;;;;;;;5099671;28;19931;-82
2024/01/01 13:12:41;;;;;;;;;;;;;;;;;;5087714;28;20410;-82
2024/01/01 13:15:07;;;;;;;;;;;;;;;;;;5099002;28;20431;-81
2024/01/01 13:17:34;;;;;;;;;;;;;;;;;;5093666;28;19935;-81
2024/01/01 13:20:00;;;;;;;;;;;;;;;;;;5100969;28;19923;-83
2024/01/01 13:22:27;;;;;;;;;;;;;;;;;;5083709;28;19931;-82
2024/01/01 13:24:53;;;;;;;;;;;;;;;;;;5101168;28;19973;-82
2024/01/01 13:27:19;;;;;;;;;;;;;;;;;;5103352;28;19928;-81
2024/01/01 13:29:46;;;;;;;;;;;;;;;;;;5103030;28;19928;-83
2024/01/01 13:32:13;;;;;;;;;;;;;;;;;;5116726;28;19966;-82
2024/01/01 13:34:40;;;;;;;;;;;;;;;;;;5097099;28;19928;-82
2024/01/01 13:37:06;;;;;;;;;;;;;;;;;;5095469;28;19928;-83
2024/01/01 13:39:33;;;;;;;;;;;;;;;;;;5102658;28;19924;-82
2024/01/01 13:41:59;;;;;;;;;;;;;;;;;;5104651;28;19934;-82
2024/01/01 13:44:26;;;;;;;;;;;;;;;;;;5095627;28;19923;-82
2024/01/01 13:46:52;;;;;;;;;;;;;;;;;;5115603;28;19931;-81
2024/01/01 13:49:19;;;;;;;;;;;;;;;;;;5080943;28;19923;-84
2024/01/01 13:51:46;;;;;;;;;;;;;;;;;;5104215;28;20384;-81
2024/01/01 13:54:15;;;;;;;;;;;;;;;;;;5121667;28;20287;-80
2024/01/01 13:56:42;;;;;;;;;;;;;;;;;;5096807;28;20022;-81
2024/01/01 13:59:08;;;;;;;;;;;;;;;;;;5115270;28;19931;-83
2024/01/01 14:01:35;;;;;;;;;;;;;;;;;;5093916;28;19934;-82
2024/01/01 14:04:01;;;;;;;;;;;;;;;;;;5105829;28;19924;-80
2024/01/01 14:06:27;;;;;;;;;;;;;;;;;;5103715;27;20019;-82
2024/01/01 14:08:54;;;;;;;;;;;;;;;;;;5116729;27;19924;-82
2024/01/01 14:11:20;;;;;;;;;;;;;;;;;;5101878;27;20006;-83
2024/01/01 14:13:47;;;;;;;;;;;;;;;;;;5085276;27;19924;-82
2024/01/01 14:16:13;;;;;;;;;;;;;;;;;;5101239;27;20571;-83
2024/01/01 14:18:41;;;;;;;;;;;;;;;;;;5101608;27;19928;-82
2024/01/01 14:21:08;;;;;;;;;;;;;;;;;;5102093;27;19930;-84
2024/01/01 14:23:34;;;;;;;;;;;;;;;;;;5118745;27;19963;-81
2024/01/01 14:26:01;;;;;;;;;;;;;;;;;;5101993;28;20295;-81
2024/01/01 14:28:27;;;;;;;;;;;;;;;;;;5102377;28;19931;-81
2024/01/01 14:30:53;;;;;;;;;;;;;;;;;;5122804;27;19974;-83
2024/01/01 14:33:20;;;;;;;;;;;;;;;;;;5085923;28;20447;-80
2024/01/01 14:35:47;;;;;;;;;;;;;;;;;;5104330;28;19988;-81
2024/01/01 14:38:13;;;;;;;;;;;;;;;;;;5118449;27;20439;-80
2024/01/01 14:40:42;;;;;;;;;;;;;;;;;;5123323;27;19927;-81
2024/01/01 14:43:08;;;;;;;;;;;;;;;;;;5082704;27;20298;-82
2024/01/01 14:45:35;;;;;;;;;;;;;;;;;;5104072;28;19924;-81
2024/01/01 14:48:02;;;;;;;;;;;;;;;;;;5102951;27;19931;-81
2024/01/01 14:50:32;;;;;;;;;;;;;;;;;;5101036;27;20369;-82
2024/01/01 14:52:59;;;;;;;;;;;;;;;;;;5102056;28;19923;-81
2024/01/01 14:55:28;;;;;;;;;;;;;;;;;;5095818;27;19932;-82
2024/01/01 14:57:54;;;;;;;;;;;;;;;;;;5102599;28;19996;-82
2024/01/01 15:00:21;;;;;;;;;;;;;;;;;;5107695;27;19923;-81
2024/01/01 15:02:47;;;;;;;;;;;;;;;;;;5123704;27;20388;-81
2024/01/01 15:05:16;;;;;;;;;;;;;;;;;;5102546;28;19980;-81
2024/01/01 15:07:43;;;;;;;;;;;;;;;;;;5103507;27;19928;-81
2024/01/01 15:10:09;;;;;;;;;;;;;;;;;;5105408;27;19930;-80
2024/01/01 15:12:35;;;;;;;;;;;;;;;;;;5085463;27;19942;-81
2024/01/01 15:15:02;;;;;;;;;;;;;;;;;;5082424;27;20342;-81
2024/01/01 15:17:29;;;;;;;;;;;;;;;;;;5080172;28;20019;-81
2024/01/01 15:19:56;;;;;;;;;;;;;;;;;;5080600;28;19959;-80
2024/01/01 15:22:22;;;;;;;;;;;;;;;;;;5120448;27;19924;-80
2024/01/01 15:24:48;;;;;;;;;;;;;;;;;;5099123;28;19930;-83
2024/01/01 15:27:15;;;;;;;;;;;;;;;;;;5097373;28;20457;-81
2024/01/01 15:29:42;;;;;;;;;;;;;;;;;;5115509;27;19946;-83
2024/01/01 15:32:08;;;;;;;;;;;;;;;;;;5083286;28;19963;-80
2024/01/01 15:34:35;;;;;;;;;;;;;;;;;;5121689;27;20307;-81
2024/01/01 15:37:02;;;;;;;;;;;;;;;;;;5105556;27;19927;-81
2024/01/01 15:39:28;;;;;;;;;;;;;;;;;;5101171;27;19934;-80
2024/01/01 15:41:55;;;;;;;;;;;;;;;;;;5114290;27;19930;-82
2024/01/01 15:44:21;;;;;;;;;;;;;;;;;;5114083;27;20015;-80
2024/01/01 15:46:47;;;;;;;;;;;;;;;;;;5120591;27;19931;-79
2024/01/01 15:49:15;;;;;;;;;;;;;;;;;;5117229;27;20402;-81
2024/01/01 15:51:41;;;;;;;;;;;;;;;;;;5100010;27;19924;-80
2024/01/01 15:54:07;;;;;;;;;;;;;;;;;;5117208;27;19959;-82
2024/01/01 15:56:34;;;;;;;;;;;;;;;;;;5116418;27;20564;-80
2024/01/01 15:59:00;;;;;;;;;;;;;;;;;;5099288;27;20292;-81
2024/01/01 16:01:27;;;;;;;;;;;;;;;;;;5114813;27;19931;-81
2024/01/01 16:03:54;;;;;;;;;;;;;;;;;;5115000;27;20022;-81
2024/01/01 16:06:21;;;;;;;;;;;;;;;;;;5078488;28;20513;-81
2024/01/01 16:08:47;;;;;;;;;;;;;;;;;;5099888;28;19924;-82
2024/01/01 16:11:13;;;;;;;;;;;;;;;;;;5096058;28;19928;-80
2024/01/01 16:13:40;;;;;;;;;;;;;;;;;;5101583;28;20323;-81
2024/01/01 16:16:07;;;;;;;;;;;;;;;;;;5099746;27;19931;-82
2024/01/01 16:18:33;;;;;;;;;;;;;;;;;;5081374;27;19935;-80
2024/01/01 16:21:00;;;;;;;;;;;;;;;;;;5100502;28;19924;-81
2024/01/01 16:23:26;;;;;;;;;;;;;;;;;;5101560;27;19931;-81
2024/01/01 16:25:53;;;;;;;;;;;;;;;;;;5101063;28;19928;-82
2024/01/01 16:28:19;;;;;;;;;;;;;;;;;;5103300;27;19950;-80
2024/01/01 16:30:46;;;;;;;;;;;;;;;;;;5117779;27;19945;-80
2024/01/01 16:33:12;;;;;;;;;;;;;;;;;;5120414;27;20369;-80
2024/01/01 16:35:39;;;;;;;;;;;;;;;;;;5104398;27;19934;-82
2024/01/01 16:38:05;;;;;;;;;;;;;;;;;;5104376;28;19924;-82
2024/01/01 16:40:32;;;;;;;;;;;;;;;;;;5120801;27;19931;-81